sensor_id;sensor_type;location;lat;lon;timestamp;temperature;humidity
6956;DHT22;50345;51.136;16.886;2022-12-29T00:01:33;8.50;99.90
6956;DHT22;50345;51.136;16.886;2022-12-29T00:03:59;8.50;99.90
6956;DHT22;50345;51.136;16.886;2022-12-29T00:06:25;8.50;99.90
6956;DHT22;50345;51.136;16.886;2022-12-29T00:08:51;8.50;99.90
6956;DHT22;50345;51.136;16.886;2022-12-29T00:11:23;8.50;99.90
6956;DHT22;50345;51.136;16.886;2022-12-29T00:13:49;8.50;99.90
6956;DHT22;50345;51.136;16.886;2022-12-29T00:16:35;8.60;99.90
6956;DHT22;50345;51.136;16.886;2022-12-29T00:19:01;8.60;99.90
6956;DHT22;50345;51.136;16.886;2022-12-29T00:21:27;8.60;99.90
6956;DHT22;50345;51.136;16.886;2022-12-29T00:24:21;8.60;99.90
6956;DHT22;50345;51.136;16.886;2022-12-29T00:29:46;8.60;99.90
6956;DHT22;50345;51.136;16.886;2022-12-29T00:32:30;8.60;99.90
6956;DHT22;50345;51.136;16.886;2022-12-29T00:35:23;8.60;99.90
6956;DHT22;50345;51.136;16.886;2022-12-29T00:37:49;8.60;99.90
6956;DHT22;50345;51.136;16.886;2022-12-29T00:40:33;8.60;99.90
6956;DHT22;50345;51.136;16.886;2022-12-29T00:43:34;8.50;99.90
6956;DHT22;50345;51.136;16.886;2022-12-29T00:46:18;8.50;99.90
6956;DHT22;50345;51.136;16.886;2022-12-29T00:48:44;8.50;99.90
6956;DHT22;50345;51.136;16.886;2022-12-29T00:51:28;8.40;99.90
6956;DHT22;50345;51.136;16.886;2022-12-29T00:53:54;8.40;99.90
6956;DHT22;50345;51.136;16.886;2022-12-29T00:56:19;8.40;99.90
6956;DHT22;50345;51.136;16.886;2022-12-29T00:58:45;8.30;99.90
6956;DHT22;50345;51.136;16.886;2022-12-29T01:01:11;8.30;99.90
6956;DHT22;50345;51.136;16.886;2022-12-29T01:03:37;8.20;99.90
6956;DHT22;50345;51.136;16.886;2022-12-29T01:06:05;8.20;99.90
6956;DHT22;50345;51.136;16.886;2022-12-29T01:08:31;8.20;99.90
6956;DHT22;50345;51.136;16.886;2022-12-29T01:11:08;8.20;99.90
6956;DHT22;50345;51.136;16.886;2022-12-29T01:13:35;8.20;99.90
6956;DHT22;50345;51.136;16.886;2022-12-29T01:16:02;8.20;99.90
6956;DHT22;50345;51.136;16.886;2022-12-29T01:18:28;8.20;99.90
6956;DHT22;50345;51.136;16.886;2022-12-29T01:21:01;8.20;99.90
6956;DHT22;50345;51.136;16.886;2022-12-29T01:23:28;8.20;99.90
6956;DHT22;50345;51.136;16.886;2022-12-29T01:25:54;8.20;99.90
6956;DHT22;50345;51.136;16.886;2022-12-29T01:28:20;8.20;99.90
6956;DHT22;50345;51.136;16.886;2022-12-29T01:30:46;8.20;99.90
6956;DHT22;50345;51.136;16.886;2022-12-29T01:33:12;8.20;99.90
6956;DHT22;50345;51.136;16.886;2022-12-29T01:35:37;8.20;99.90
6956;DHT22;50345;51.136;16.886;2022-12-29T01:38:03;8.20;99.90
6956;DHT22;50345;51.136;16.886;2022-12-29T01:40:28;8.20;99.90
6956;DHT22;50345;51.136;16.886;2022-12-29T01:42:54;8.20;99.90
6956;DHT22;50345;51.136;16.886;2022-12-29T01:45:20;8.20;99.90
6956;DHT22;50345;51.136;16.886;2022-12-29T01:47:59;8.30;99.90
6956;DHT22;50345;51.136;16.886;2022-12-29T01:50:30;8.30;99.90
6956;DHT22;50345;51.136;16.886;2022-12-29T01:55:31;8.30;99.90
6956;DHT22;50345;51.136;16.886;2022-12-29T01:58:01;8.30;99.90
6956;DHT22;50345;51.136;16.886;2022-12-29T02:00:29;8.30;99.90
6956;DHT22;50345;51.136;16.886;2022-12-29T02:02:55;8.30;99.90
6956;DHT22;50345;51.136;16.886;2022-12-29T02:07:59;8.30;99.90
6956;DHT22;50345;51.136;16.886;2022-12-29T02:10:26;8.30;99.90
6956;DHT22;50345;51.136;16.886;2022-12-29T02:12:53;8.20;99.90
6956;DHT22;50345;51.136;16.886;2022-12-29T02:15:22;8.20;99.90
6956;DHT22;50345;51.136;16.886;2022-12-29T02:20:50;8.20;99.90
6956;DHT22;50345;51.136;16.886;2022-12-29T02:32:07;8.20;99.90
6956;DHT22;50345;51.136;16.886;2022-12-29T02:35:12;8.20;99.90
6956;DHT22;50345;51.136;16.886;2022-12-29T02:40:23;8.10;99.90
6956;DHT22;50345;51.136;16.886;2022-12-29T02:45:43;8.10;99.90
6956;DHT22;50345;51.136;16.886;2022-12-29T02:51:04;8.20;99.90
6956;DHT22;50345;51.136;16.886;2022-12-29T02:53:34;8.20;99.90
6956;DHT22;50345;51.136;16.886;2022-12-29T02:56:18;8.30;99.90
6956;DHT22;50345;51.136;16.886;2022-12-29T02:58:44;8.30;99.90
6956;DHT22;50345;51.136;16.886;2022-12-29T03:04:12;8.30;99.90
6956;DHT22;50345;51.136;16.886;2022-12-29T03:10:07;8.40;99.90
6956;DHT22;50345;51.136;16.886;2022-12-29T03:12:54;8.50;99.90
6956;DHT22;50345;51.136;16.886;2022-12-29T03:15:45;8.50;99.90
6956;DHT22;50345;51.136;16.886;2022-12-29T03:21:44;8.50;99.90
6956;DHT22;50345;51.136;16.886;2022-12-29T03:23:45;8.50;99.90
6956;DHT22;50345;51.136;16.886;2022-12-29T03:26:14;8.60;99.90
6956;DHT22;50345;51.136;16.886;2022-12-29T03:28:46;8.50;99.90
6956;DHT22;50345;51.136;16.886;2022-12-29T03:31:13;8.50;99.90
6956;DHT22;50345;51.136;16.886;2022-12-29T03:33:41;8.50;99.90
6956;DHT22;50345;51.136;16.886;2022-12-29T03:36:12;8.40;99.90
6956;DHT22;50345;51.136;16.886;2022-12-29T03:38:44;8.30;99.90
6956;DHT22;50345;51.136;16.886;2022-12-29T03:41:15;8.30;99.90
6956;DHT22;50345;51.136;16.886;2022-12-29T03:43:41;8.30;99.90
6956;DHT22;50345;51.136;16.886;2022-12-29T03:46:07;8.30;99.90
6956;DHT22;50345;51.136;16.886;2022-12-29T03:48:32;8.30;99.90
6956;DHT22;50345;51.136;16.886;2022-12-29T03:50:58;8.30;99.90
6956;DHT22;50345;51.136;16.886;2022-12-29T03:53:24;8.40;99.90
6956;DHT22;50345;51.136;16.886;2022-12-29T03:55:50;8.50;99.90
6956;DHT22;50345;51.136;16.886;2022-12-29T03:58:15;8.50;99.90
6956;DHT22;50345;51.136;16.886;2022-12-29T04:00:41;8.50;99.90
6956;DHT22;50345;51.136;16.886;2022-12-29T04:03:06;8.60;99.90
6956;DHT22;50345;51.136;16.886;2022-12-29T04:05:32;8.60;99.90
6956;DHT22;50345;51.136;16.886;2022-12-29T04:07:57;8.70;99.90
6956;DHT22;50345;51.136;16.886;2022-12-29T04:10:23;8.70;99.90
6956;DHT22;50345;51.136;16.886;2022-12-29T04:12:48;8.70;99.90
6956;DHT22;50345;51.136;16.886;2022-12-29T04:15:14;8.80;99.90
6956;DHT22;50345;51.136;16.886;2022-12-29T04:17:40;8.80;99.90
6956;DHT22;50345;51.136;16.886;2022-12-29T04:20:05;8.70;99.90
6956;DHT22;50345;51.136;16.886;2022-12-29T04:22:58;8.70;99.90
6956;DHT22;50345;51.136;16.886;2022-12-29T04:25:24;8.70;99.90
6956;DHT22;50345;51.136;16.886;2022-12-29T04:27:49;8.60;99.90
6956;DHT22;50345;51.136;16.886;2022-12-29T04:30:15;8.60;99.90
6956;DHT22;50345;51.136;16.886;2022-12-29T04:32:40;8.60;99.90
6956;DHT22;50345;51.136;16.886;2022-12-29T04:35:06;8.50;99.90
6956;DHT22;50345;51.136;16.886;2022-12-29T04:37:32;8.60;99.90
6956;DHT22;50345;51.136;16.886;2022-12-29T04:39:57;8.60;99.90
6956;DHT22;50345;51.136;16.886;2022-12-29T04:42:23;8.60;99.90
6956;DHT22;50345;51.136;16.886;2022-12-29T04:44:48;8.60;99.90
6956;DHT22;50345;51.136;16.886;2022-12-29T04:47:14;8.70;99.90
6956;DHT22;50345;51.136;16.886;2022-12-29T04:49:39;8.70;99.90
6956;DHT22;50345;51.136;16.886;2022-12-29T04:52:05;8.80;99.90
6956;DHT22;50345;51.136;16.886;2022-12-29T04:54:30;8.80;99.90
6956;DHT22;50345;51.136;16.886;2022-12-29T04:56:56;8.90;99.90
6956;DHT22;50345;51.136;16.886;2022-12-29T04:59:22;8.90;99.90
6956;DHT22;50345;51.136;16.886;2022-12-29T05:01:47;9.00;99.90
6956;DHT22;50345;51.136;16.886;2022-12-29T05:04:13;9.00;99.90
6956;DHT22;50345;51.136;16.886;2022-12-29T05:06:38;9.00;99.90
6956;DHT22;50345;51.136;16.886;2022-12-29T05:09:04;9.10;99.90
6956;DHT22;50345;51.136;16.886;2022-12-29T05:11:29;9.10;99.90
6956;DHT22;50345;51.136;16.886;2022-12-29T05:13:55;9.10;99.90
6956;DHT22;50345;51.136;16.886;2022-12-29T05:16:21;9.10;99.90
6956;DHT22;50345;51.136;16.886;2022-12-29T05:18:46;9.10;99.90
6956;DHT22;50345;51.136;16.886;2022-12-29T05:21:12;9.20;99.90
6956;DHT22;50345;51.136;16.886;2022-12-29T05:23:37;9.20;99.90
6956;DHT22;50345;51.136;16.886;2022-12-29T05:26:03;9.20;99.90
6956;DHT22;50345;51.136;16.886;2022-12-29T05:28:29;9.20;99.90
6956;DHT22;50345;51.136;16.886;2022-12-29T05:30:54;9.20;99.90
6956;DHT22;50345;51.136;16.886;2022-12-29T05:33:20;9.20;99.90
6956;DHT22;50345;51.136;16.886;2022-12-29T05:35:45;9.20;99.90
6956;DHT22;50345;51.136;16.886;2022-12-29T05:38:11;9.10;99.90
6956;DHT22;50345;51.136;16.886;2022-12-29T05:40:37;9.10;99.90
6956;DHT22;50345;51.136;16.886;2022-12-29T05:43:02;9.10;99.90
6956;DHT22;50345;51.136;16.886;2022-12-29T05:45:28;9.00;99.90
6956;DHT22;50345;51.136;16.886;2022-12-29T05:47:53;9.00;99.90
6956;DHT22;50345;51.136;16.886;2022-12-29T05:50:19;9.00;99.90
6956;DHT22;50345;51.136;16.886;2022-12-29T05:52:44;9.00;99.90
6956;DHT22;50345;51.136;16.886;2022-12-29T05:55:10;9.00;99.90
6956;DHT22;50345;51.136;16.886;2022-12-29T05:57:36;9.00;99.90
6956;DHT22;50345;51.136;16.886;2022-12-29T06:00:03;9.00;99.90
6956;DHT22;50345;51.136;16.886;2022-12-29T06:02:29;9.00;99.90
6956;DHT22;50345;51.136;16.886;2022-12-29T06:04:55;9.00;99.90
6956;DHT22;50345;51.136;16.886;2022-12-29T06:07:20;9.00;99.90
6956;DHT22;50345;51.136;16.886;2022-12-29T06:09:46;9.00;99.90
6956;DHT22;50345;51.136;16.886;2022-12-29T06:12:11;9.00;99.90
6956;DHT22;50345;51.136;16.886;2022-12-29T06:14:37;9.00;99.90
6956;DHT22;50345;51.136;16.886;2022-12-29T06:17:02;8.90;99.90
6956;DHT22;50345;51.136;16.886;2022-12-29T06:19:28;8.90;99.90
6956;DHT22;50345;51.136;16.886;2022-12-29T06:21:54;8.90;99.90
6956;DHT22;50345;51.136;16.886;2022-12-29T06:24:20;8.90;99.90
6956;DHT22;50345;51.136;16.886;2022-12-29T06:26:46;8.90;99.90
6956;DHT22;50345;51.136;16.886;2022-12-29T06:29:12;8.80;99.90
6956;DHT22;50345;51.136;16.886;2022-12-29T06:31:42;8.90;99.90
6956;DHT22;50345;51.136;16.886;2022-12-29T06:34:08;8.90;99.90
6956;DHT22;50345;51.136;16.886;2022-12-29T06:36:34;8.90;99.90
6956;DHT22;50345;51.136;16.886;2022-12-29T06:38:59;8.90;99.90
6956;DHT22;50345;51.136;16.886;2022-12-29T06:41:25;8.90;99.90
6956;DHT22;50345;51.136;16.886;2022-12-29T06:43:50;8.90;99.90
6956;DHT22;50345;51.136;16.886;2022-12-29T06:46:16;9.00;99.90
6956;DHT22;50345;51.136;16.886;2022-12-29T06:48:42;9.00;99.90
6956;DHT22;50345;51.136;16.886;2022-12-29T06:51:07;9.00;99.90
6956;DHT22;50345;51.136;16.886;2022-12-29T06:53:33;9.00;99.90
6956;DHT22;50345;51.136;16.886;2022-12-29T06:55:59;9.10;99.90
6956;DHT22;50345;51.136;16.886;2022-12-29T06:58:24;9.10;99.90
6956;DHT22;50345;51.136;16.886;2022-12-29T07:00:50;9.10;99.90
6956;DHT22;50345;51.136;16.886;2022-12-29T07:03:15;9.10;99.90
6956;DHT22;50345;51.136;16.886;2022-12-29T07:05:41;9.10;99.90
6956;DHT22;50345;51.136;16.886;2022-12-29T07:08:06;9.20;99.90
6956;DHT22;50345;51.136;16.886;2022-12-29T07:10:32;9.20;99.90
6956;DHT22;50345;51.136;16.886;2022-12-29T07:12:57;9.20;99.90
6956;DHT22;50345;51.136;16.886;2022-12-29T07:15:23;9.20;99.90
6956;DHT22;50345;51.136;16.886;2022-12-29T07:17:48;9.30;99.90
6956;DHT22;50345;51.136;16.886;2022-12-29T07:20:17;9.30;99.90
6956;DHT22;50345;51.136;16.886;2022-12-29T07:22:42;9.40;99.90
6956;DHT22;50345;51.136;16.886;2022-12-29T07:25:08;9.40;99.90
6956;DHT22;50345;51.136;16.886;2022-12-29T07:27:34;9.50;99.90
6956;DHT22;50345;51.136;16.886;2022-12-29T07:30:00;9.50;99.90
6956;DHT22;50345;51.136;16.886;2022-12-29T07:32:25;9.50;99.90
6956;DHT22;50345;51.136;16.886;2022-12-29T07:34:51;9.60;99.90
6956;DHT22;50345;51.136;16.886;2022-12-29T07:37:17;9.60;99.90
6956;DHT22;50345;51.136;16.886;2022-12-29T07:39:43;9.60;99.90
6956;DHT22;50345;51.136;16.886;2022-12-29T07:42:09;9.70;99.90
6956;DHT22;50345;51.136;16.886;2022-12-29T07:44:34;9.80;99.90
6956;DHT22;50345;51.136;16.886;2022-12-29T07:47:01;9.90;99.90
6956;DHT22;50345;51.136;16.886;2022-12-29T07:49:27;9.90;99.90
6956;DHT22;50345;51.136;16.886;2022-12-29T07:51:53;9.90;99.90
6956;DHT22;50345;51.136;16.886;2022-12-29T07:54:18;10.00;99.90
6956;DHT22;50345;51.136;16.886;2022-12-29T07:56:45;10.00;99.90
6956;DHT22;50345;51.136;16.886;2022-12-29T07:59:10;10.10;99.90
6956;DHT22;50345;51.136;16.886;2022-12-29T08:01:37;10.10;99.90
6956;DHT22;50345;51.136;16.886;2022-12-29T08:04:03;10.10;99.90
6956;DHT22;50345;51.136;16.886;2022-12-29T08:06:29;10.20;99.90
6956;DHT22;50345;51.136;16.886;2022-12-29T08:08:56;10.20;99.90
6956;DHT22;50345;51.136;16.886;2022-12-29T08:11:22;10.30;99.90
6956;DHT22;50345;51.136;16.886;2022-12-29T08:13:47;10.30;99.90
6956;DHT22;50345;51.136;16.886;2022-12-29T08:16:13;10.30;99.90
6956;DHT22;50345;51.136;16.886;2022-12-29T08:18:39;10.40;99.90
6956;DHT22;50345;51.136;16.886;2022-12-29T08:21:05;10.40;99.90
6956;DHT22;50345;51.136;16.886;2022-12-29T08:23:31;10.40;99.90
6956;DHT22;50345;51.136;16.886;2022-12-29T08:26:01;10.40;99.90
6956;DHT22;50345;51.136;16.886;2022-12-29T08:28:27;10.40;99.90
6956;DHT22;50345;51.136;16.886;2022-12-29T08:30:53;10.40;99.90
6956;DHT22;50345;51.136;16.886;2022-12-29T08:33:18;10.50;99.90
6956;DHT22;50345;51.136;16.886;2022-12-29T08:35:44;10.50;99.90
6956;DHT22;50345;51.136;16.886;2022-12-29T08:38:10;10.60;99.90
6956;DHT22;50345;51.136;16.886;2022-12-29T08:40:38;10.70;99.90
6956;DHT22;50345;51.136;16.886;2022-12-29T08:43:04;10.70;99.90
6956;DHT22;50345;51.136;16.886;2022-12-29T08:45:30;10.80;99.90
6956;DHT22;50345;51.136;16.886;2022-12-29T08:47:56;10.80;99.90
6956;DHT22;50345;51.136;16.886;2022-12-29T08:50:22;10.70;99.90
6956;DHT22;50345;51.136;16.886;2022-12-29T08:52:47;10.70;99.90
6956;DHT22;50345;51.136;16.886;2022-12-29T08:55:13;10.70;99.90
6956;DHT22;50345;51.136;16.886;2022-12-29T08:57:38;10.70;99.90
6956;DHT22;50345;51.136;16.886;2022-12-29T09:00:04;10.70;99.90
6956;DHT22;50345;51.136;16.886;2022-12-29T09:02:30;10.80;99.90
6956;DHT22;50345;51.136;16.886;2022-12-29T09:04:56;10.80;99.90
6956;DHT22;50345;51.136;16.886;2022-12-29T09:07:23;10.90;99.90
6956;DHT22;50345;51.136;16.886;2022-12-29T09:09:48;11.00;99.90
6956;DHT22;50345;51.136;16.886;2022-12-29T09:12:15;11.10;99.90
6956;DHT22;50345;51.136;16.886;2022-12-29T09:14:41;11.10;99.90
6956;DHT22;50345;51.136;16.886;2022-12-29T09:17:08;11.20;99.90
6956;DHT22;50345;51.136;16.886;2022-12-29T09:19:52;11.20;99.90
6956;DHT22;50345;51.136;16.886;2022-12-29T09:22:18;11.20;99.90
6956;DHT22;50345;51.136;16.886;2022-12-29T09:24:44;11.30;99.90
6956;DHT22;50345;51.136;16.886;2022-12-29T09:27:09;11.30;99.90
6956;DHT22;50345;51.136;16.886;2022-12-29T09:29:35;11.40;99.90
6956;DHT22;50345;51.136;16.886;2022-12-29T09:32:00;11.60;99.90
6956;DHT22;50345;51.136;16.886;2022-12-29T09:34:26;11.60;99.90
6956;DHT22;50345;51.136;16.886;2022-12-29T09:36:51;11.70;99.90
6956;DHT22;50345;51.136;16.886;2022-12-29T09:39:17;11.60;99.90
6956;DHT22;50345;51.136;16.886;2022-12-29T09:41:44;11.60;99.90
6956;DHT22;50345;51.136;16.886;2022-12-29T09:44:25;11.60;99.90
6956;DHT22;50345;51.136;16.886;2022-12-29T09:46:55;11.60;99.80
6956;DHT22;50345;51.136;16.886;2022-12-29T09:49:47;11.60;98.60
6956;DHT22;50345;51.136;16.886;2022-12-29T09:52:29;11.60;98.30
6956;DHT22;50345;51.136;16.886;2022-12-29T09:55:08;11.70;98.10
6956;DHT22;50345;51.136;16.886;2022-12-29T09:57:40;11.80;97.80
6956;DHT22;50345;51.136;16.886;2022-12-29T10:00:16;11.90;97.50
6956;DHT22;50345;51.136;16.886;2022-12-29T10:02:46;12.00;96.50
6956;DHT22;50345;51.136;16.886;2022-12-29T10:08:10;11.90;96.50
6956;DHT22;50345;51.136;16.886;2022-12-29T10:10:56;11.90;96.50
6956;DHT22;50345;51.136;16.886;2022-12-29T10:13:43;11.80;96.90
6956;DHT22;50345;51.136;16.886;2022-12-29T10:16:25;11.90;96.80
6956;DHT22;50345;51.136;16.886;2022-12-29T10:24:05;12.20;96.00
6956;DHT22;50345;51.136;16.886;2022-12-29T10:26:39;12.20;95.70
6956;DHT22;50345;51.136;16.886;2022-12-29T10:29:17;12.20;95.60
6956;DHT22;50345;51.136;16.886;2022-12-29T10:31:56;12.20;95.70
6956;DHT22;50345;51.136;16.886;2022-12-29T10:34:29;12.20;95.80
6956;DHT22;50345;51.136;16.886;2022-12-29T10:39:50;12.20;95.10
6956;DHT22;50345;51.136;16.886;2022-12-29T10:42:39;12.20;94.50
6956;DHT22;50345;51.136;16.886;2022-12-29T10:45:13;12.20;94.30
6956;DHT22;50345;51.136;16.886;2022-12-29T10:50:19;12.40;92.30
6956;DHT22;50345;51.136;16.886;2022-12-29T10:52:45;12.50;92.40
6956;DHT22;50345;51.136;16.886;2022-12-29T10:55:22;12.70;91.10
6956;DHT22;50345;51.136;16.886;2022-12-29T10:57:50;12.90;90.30
6956;DHT22;50345;51.136;16.886;2022-12-29T11:00:21;13.00;88.80
6956;DHT22;50345;51.136;16.886;2022-12-29T11:05:33;13.10;86.80
6956;DHT22;50345;51.136;16.886;2022-12-29T11:08:04;13.20;86.90
6956;DHT22;50345;51.136;16.886;2022-12-29T11:13:19;13.50;86.70
6956;DHT22;50345;51.136;16.886;2022-12-29T11:15:50;13.80;86.50
6956;DHT22;50345;51.136;16.886;2022-12-29T11:18:24;13.90;84.20
6956;DHT22;50345;51.136;16.886;2022-12-29T11:20:56;13.90;84.60
6956;DHT22;50345;51.136;16.886;2022-12-29T11:23:39;14.00;84.00
6956;DHT22;50345;51.136;16.886;2022-12-29T11:26:21;14.10;83.50
6956;DHT22;50345;51.136;16.886;2022-12-29T11:31:59;14.10;81.20
6956;DHT22;50345;51.136;16.886;2022-12-29T11:34:35;14.00;82.00
6956;DHT22;50345;51.136;16.886;2022-12-29T11:37:09;13.90;83.10
6956;DHT22;50345;51.136;16.886;2022-12-29T11:39:40;13.80;81.10
6956;DHT22;50345;51.136;16.886;2022-12-29T11:42:15;13.80;81.20
6956;DHT22;50345;51.136;16.886;2022-12-29T11:44:47;13.80;80.60
6956;DHT22;50345;51.136;16.886;2022-12-29T11:47:33;13.80;80.20
6956;DHT22;50345;51.136;16.886;2022-12-29T11:50:02;13.70;79.20
6956;DHT22;50345;51.136;16.886;2022-12-29T11:52:32;13.60;79.30
6956;DHT22;50345;51.136;16.886;2022-12-29T11:55:02;13.60;80.20
6956;DHT22;50345;51.136;16.886;2022-12-29T11:57:29;13.50;81.10
6956;DHT22;50345;51.136;16.886;2022-12-29T11:59:56;13.50;81.20
6956;DHT22;50345;51.136;16.886;2022-12-29T12:02:36;13.40;82.10
6956;DHT22;50345;51.136;16.886;2022-12-29T12:10:50;13.10;83.70
6956;DHT22;50345;51.136;16.886;2022-12-29T12:14:00;13.00;83.60
6956;DHT22;50345;51.136;16.886;2022-12-29T12:16:41;12.90;84.10
6956;DHT22;50345;51.136;16.886;2022-12-29T12:22:11;12.70;85.50
6956;DHT22;50345;51.136;16.886;2022-12-29T12:27:41;12.50;86.40
6956;DHT22;50345;51.136;16.886;2022-12-29T12:30:20;12.40;86.60
6956;DHT22;50345;51.136;16.886;2022-12-29T12:38:26;12.30;88.20
6956;DHT22;50345;51.136;16.886;2022-12-29T12:47:21;12.40;88.70
6956;DHT22;50345;51.136;16.886;2022-12-29T12:55:00;12.60;89.80
6956;DHT22;50345;51.136;16.886;2022-12-29T13:00:24;12.70;90.20
6956;DHT22;50345;51.136;16.886;2022-12-29T13:03:01;12.70;89.90
6956;DHT22;50345;51.136;16.886;2022-12-29T13:08:40;12.60;90.40
6956;DHT22;50345;51.136;16.886;2022-12-29T13:14:17;12.50;90.20
6956;DHT22;50345;51.136;16.886;2022-12-29T13:19:48;12.40;90.70
6956;DHT22;50345;51.136;16.886;2022-12-29T13:28:10;12.20;92.00
6956;DHT22;50345;51.136;16.886;2022-12-29T13:36:16;12.20;93.80
6956;DHT22;50345;51.136;16.886;2022-12-29T13:38:46;12.20;94.10
6956;DHT22;50345;51.136;16.886;2022-12-29T13:41:30;12.20;94.30
6956;DHT22;50345;51.136;16.886;2022-12-29T13:43:57;12.20;94.40
6956;DHT22;50345;51.136;16.886;2022-12-29T13:46:29;12.20;94.50
6956;DHT22;50345;51.136;16.886;2022-12-29T13:49:11;12.20;94.60
6956;DHT22;50345;51.136;16.886;2022-12-29T13:51:42;12.20;94.70
6956;DHT22;50345;51.136;16.886;2022-12-29T13:56:49;12.10;95.30
6956;DHT22;50345;51.136;16.886;2022-12-29T14:02:11;12.10;95.70
6956;DHT22;50345;51.136;16.886;2022-12-29T14:07:24;12.00;95.90
6956;DHT22;50345;51.136;16.886;2022-12-29T14:09:55;11.90;96.10
6956;DHT22;50345;51.136;16.886;2022-12-29T14:14:53;11.80;97.00
6956;DHT22;50345;51.136;16.886;2022-12-29T14:17:20;11.70;97.40
6956;DHT22;50345;51.136;16.886;2022-12-29T14:19:51;11.70;98.00
6956;DHT22;50345;51.136;16.886;2022-12-29T14:22:24;11.60;98.20
6956;DHT22;50345;51.136;16.886;2022-12-29T14:24:50;11.60;98.60
6956;DHT22;50345;51.136;16.886;2022-12-29T14:29:42;11.50;98.80
6956;DHT22;50345;51.136;16.886;2022-12-29T14:34:56;11.50;98.90
6956;DHT22;50345;51.136;16.886;2022-12-29T14:37:34;11.40;99.20
6956;DHT22;50345;51.136;16.886;2022-12-29T14:42:46;11.30;99.80
6956;DHT22;50345;51.136;16.886;2022-12-29T14:55:43;11.00;99.90
6956;DHT22;50345;51.136;16.886;2022-12-29T14:58:32;10.90;99.90
6956;DHT22;50345;51.136;16.886;2022-12-29T15:01:03;10.90;99.90
6956;DHT22;50345;51.136;16.886;2022-12-29T15:03:34;10.80;99.90
6956;DHT22;50345;51.136;16.886;2022-12-29T15:06:16;10.70;99.90
6956;DHT22;50345;51.136;16.886;2022-12-29T15:11:31;10.60;99.90
6956;DHT22;50345;51.136;16.886;2022-12-29T15:16:56;10.40;99.90
6956;DHT22;50345;51.136;16.886;2022-12-29T15:19:24;10.30;99.90
6956;DHT22;50345;51.136;16.886;2022-12-29T15:21:50;10.30;99.90
6956;DHT22;50345;51.136;16.886;2022-12-29T15:24:16;10.30;99.90
6956;DHT22;50345;51.136;16.886;2022-12-29T15:26:44;10.20;99.90
6956;DHT22;50345;51.136;16.886;2022-12-29T15:29:30;10.20;99.90
6956;DHT22;50345;51.136;16.886;2022-12-29T15:31:59;10.10;99.90
6956;DHT22;50345;51.136;16.886;2022-12-29T15:34:30;10.10;99.90
6956;DHT22;50345;51.136;16.886;2022-12-29T15:36:55;10.00;99.90
6956;DHT22;50345;51.136;16.886;2022-12-29T15:39:29;10.00;99.90
6956;DHT22;50345;51.136;16.886;2022-12-29T15:44:49;9.80;99.90
6956;DHT22;50345;51.136;16.886;2022-12-29T15:47:21;9.80;99.90
6956;DHT22;50345;51.136;16.886;2022-12-29T15:50:13;9.70;99.90
6956;DHT22;50345;51.136;16.886;2022-12-29T15:52:34;9.70;99.90
6956;DHT22;50345;51.136;16.886;2022-12-29T15:55:01;9.60;99.90
6956;DHT22;50345;51.136;16.886;2022-12-29T15:57:30;9.50;99.90
6956;DHT22;50345;51.136;16.886;2022-12-29T15:59:56;9.40;99.90
6956;DHT22;50345;51.136;16.886;2022-12-29T16:02:23;9.40;99.90
6956;DHT22;50345;51.136;16.886;2022-12-29T16:04:50;9.40;99.90
6956;DHT22;50345;51.136;16.886;2022-12-29T16:09:58;9.30;99.90
6956;DHT22;50345;51.136;16.886;2022-12-29T16:12:29;9.30;99.90
6956;DHT22;50345;51.136;16.886;2022-12-29T16:14:56;9.30;99.90
6956;DHT22;50345;51.136;16.886;2022-12-29T16:17:24;9.30;99.90
6956;DHT22;50345;51.136;16.886;2022-12-29T16:20:04;9.20;99.90
6956;DHT22;50345;51.136;16.886;2022-12-29T16:22:38;9.20;99.90
6956;DHT22;50345;51.136;16.886;2022-12-29T16:27:57;9.30;99.90
6956;DHT22;50345;51.136;16.886;2022-12-29T16:30:29;9.30;99.90
6956;DHT22;50345;51.136;16.886;2022-12-29T16:32:57;9.30;99.90
6956;DHT22;50345;51.136;16.886;2022-12-29T16:35:29;9.30;99.90
6956;DHT22;50345;51.136;16.886;2022-12-29T16:38:15;9.30;99.90
6956;DHT22;50345;51.136;16.886;2022-12-29T16:40:54;9.40;99.90
6956;DHT22;50345;51.136;16.886;2022-12-29T16:43:28;9.40;99.90
6956;DHT22;50345;51.136;16.886;2022-12-29T16:48:31;9.40;99.90
6956;DHT22;50345;51.136;16.886;2022-12-29T16:51:15;9.50;99.90
6956;DHT22;50345;51.136;16.886;2022-12-29T16:53:47;9.50;99.90
6956;DHT22;50345;51.136;16.886;2022-12-29T16:56:15;9.50;99.90
6956;DHT22;50345;51.136;16.886;2022-12-29T16:58:46;9.50;99.90
6956;DHT22;50345;51.136;16.886;2022-12-29T17:01:12;9.50;99.90
6956;DHT22;50345;51.136;16.886;2022-12-29T17:03:47;9.50;99.90
6956;DHT22;50345;51.136;16.886;2022-12-29T17:06:16;9.40;99.90
6956;DHT22;50345;51.136;16.886;2022-12-29T17:08:44;9.30;99.90
6956;DHT22;50345;51.136;16.886;2022-12-29T17:11:33;9.20;99.90
6956;DHT22;50345;51.136;16.886;2022-12-29T17:19:35;9.10;99.90
6956;DHT22;50345;51.136;16.886;2022-12-29T17:22:02;9.10;99.90
6956;DHT22;50345;51.136;16.886;2022-12-29T17:24:28;9.10;99.90
6956;DHT22;50345;51.136;16.886;2022-12-29T17:26:58;9.10;99.90
6956;DHT22;50345;51.136;16.886;2022-12-29T17:29:33;9.10;99.90
6956;DHT22;50345;51.136;16.886;2022-12-29T17:32:02;9.10;99.90
6956;DHT22;50345;51.136;16.886;2022-12-29T17:34:28;9.20;99.90
6956;DHT22;50345;51.136;16.886;2022-12-29T17:36:54;9.30;99.90
6956;DHT22;50345;51.136;16.886;2022-12-29T17:39:20;9.30;99.90
6956;DHT22;50345;51.136;16.886;2022-12-29T17:41:46;9.40;99.90
6956;DHT22;50345;51.136;16.886;2022-12-29T17:44:16;9.40;99.90
6956;DHT22;50345;51.136;16.886;2022-12-29T17:46:43;9.30;99.90
6956;DHT22;50345;51.136;16.886;2022-12-29T17:49:12;9.30;99.90
6956;DHT22;50345;51.136;16.886;2022-12-29T17:51:38;9.30;99.90
6956;DHT22;50345;51.136;16.886;2022-12-29T17:54:03;9.20;99.90
6956;DHT22;50345;51.136;16.886;2022-12-29T17:56:29;9.20;99.90
6956;DHT22;50345;51.136;16.886;2022-12-29T17:58:55;9.20;99.90
6956;DHT22;50345;51.136;16.886;2022-12-29T18:01:21;9.20;99.90
6956;DHT22;50345;51.136;16.886;2022-12-29T18:03:46;9.20;99.90
6956;DHT22;50345;51.136;16.886;2022-12-29T18:06:12;9.30;99.90
6956;DHT22;50345;51.136;16.886;2022-12-29T18:08:39;9.30;99.90
6956;DHT22;50345;51.136;16.886;2022-12-29T18:11:25;9.40;99.90
6956;DHT22;50345;51.136;16.886;2022-12-29T18:13:54;9.50;99.90
6956;DHT22;50345;51.136;16.886;2022-12-29T18:16:21;9.60;99.90
6956;DHT22;50345;51.136;16.886;2022-12-29T18:18:47;9.70;99.90
6956;DHT22;50345;51.136;16.886;2022-12-29T18:21:18;9.80;99.90
6956;DHT22;50345;51.136;16.886;2022-12-29T18:23:46;9.80;99.90
6956;DHT22;50345;51.136;16.886;2022-12-29T18:26:23;9.90;99.90
6956;DHT22;50345;51.136;16.886;2022-12-29T18:28:49;9.90;99.90
6956;DHT22;50345;51.136;16.886;2022-12-29T18:31:18;9.90;99.90
6956;DHT22;50345;51.136;16.886;2022-12-29T18:33:45;9.90;99.90
6956;DHT22;50345;51.136;16.886;2022-12-29T18:36:12;9.90;99.90
6956;DHT22;50345;51.136;16.886;2022-12-29T18:38:37;9.90;99.90